Time;durP1;ratioP1;P1;durP2;ratioP2;P2;SDS_P1;SDS_P2;PMS_P1;PMS_P2;Temp;Humidity;BMP_temperature;BMP_pressure;BME280_temperature;BME280_humidity;BME280_pressure;Samples;Min_cycle;Max_cycle;Signal;HPM_P1;HPM_P2
2023/04/02 00:04:36;;;;;;;4.20;2.72;;;;;;;;;;10314233;28;20072;-70
2023/04/02 00:09:37;;;;;;;2.75;2.35;;;;;;;;;;10301821;28;20075;-69
2023/04/02 00:14:36;;;;;;;5.25;4.28;;;;;;;;;;10313182;28;20097;-70
2023/04/02 00:19:36;;;;;;;1.85;1.75;;;;;;;;;;10313899;28;20080;-69
2023/04/02 00:24:34;;;;;;;5.72;5.22;;;;;;;;;;10313771;28;20064;-68
2023/04/02 00:29:34;;;;;;;9.65;8.75;;;;;;;;;;10319531;28;20079;-69
2023/04/02 00:34:34;;;;;;;14.68;13.38;;;;;;;;;;10319416;28;20072;-68
2023/04/02 00:39:37;;;;;;;6.97;4.50;;;;;;;;;;10321176;28;20087;-69
2023/04/02 00:44:41;;;;;;;3.38;2.80;;;;;;;;;;10321651;28;20075;-69
2023/04/02 00:49:40;;;;;;;2.80;2.60;;;;;;;;;;10320474;28;20075;-69
2023/04/02 00:54:41;;;;;;;2.97;2.30;;;;;;;;;;10316396;28;20071;-68
2023/04/02 00:59:48;;;;;;;2.50;2.30;;;;;;;;;;10320738;28;20068;-68
2023/04/02 01:04:52;;;;;;;3.88;3.22;;;;;;;;;;10311232;28;20072;-68
2023/04/02 01:09:59;;;;;;;2.83;2.60;;;;;;;;;;10316709;28;20100;-68
2023/04/02 01:15:03;;;;;;;3.60;3.30;;;;;;;;;;10316996;28;20075;-69
2023/04/02 01:20:28;;;;;;;3.58;3.28;;;;;;;;;;10319234;28;20509;-69
2023/04/02 01:25:30;;;;;;;8.07;4.55;;;;;;;;;;10319776;28;20091;-68
2023/04/02 01:30:30;;;;;;;4.32;3.92;;;;;;;;;;10320339;28;20071;-68
2023/04/02 01:35:30;;;;;;;4.85;4.22;;;;;;;;;;10317411;28;20076;-69
2023/04/02 01:40:34;;;;;;;4.82;4.18;;;;;;;;;;10318314;28;20079;-68
2023/04/02 01:45:34;;;;;;;6.70;4.30;;;;;;;;;;10319762;28;20075;-68
2023/04/02 01:50:35;;;;;;;4.70;4.18;;;;;;;;;;10319505;28;20065;-68
2023/04/02 01:55:39;;;;;;;4.07;3.78;;;;;;;;;;10319209;28;20063;-68
2023/04/02 02:00:43;;;;;;;3.95;3.65;;;;;;;;;;10310344;28;20510;-68
2023/04/02 02:05:42;;;;;;;5.72;3.80;;;;;;;;;;10313447;28;20068;-69
2023/04/02 02:10:40;;;;;;;4.85;3.90;;;;;;;;;;10317164;28;20794;-69
2023/04/02 02:15:40;;;;;;;4.35;3.67;;;;;;;;;;10315369;28;20075;-68
2023/04/02 02:20:39;;;;;;;4.25;3.85;;;;;;;;;;10316412;28;20049;-69
2023/04/02 02:25:37;;;;;;;4.40;4.10;;;;;;;;;;10317992;28;20060;-69
2023/04/02 02:30:37;;;;;;;3.25;3.05;;;;;;;;;;10316365;28;20086;-69
2023/04/02 02:35:41;;;;;;;4.00;3.60;;;;;;;;;;10317429;28;20506;-69
2023/04/02 02:40:43;;;;;;;3.45;3.15;;;;;;;;;;10315488;28;20060;-69
2023/04/02 02:45:42;;;;;;;5.55;3.53;;;;;;;;;;10316092;28;20525;-69
2023/04/02 02:50:42;;;;;;;3.67;3.10;;;;;;;;;;10317800;28;20040;-69
2023/04/02 02:55:42;;;;;;;4.07;3.55;;;;;;;;;;10316820;28;20084;-69
2023/04/02 03:00:48;;;;;;;3.50;3.20;;;;;;;;;;10314818;28;20056;-69
2023/04/02 03:05:52;;;;;;;4.32;3.90;;;;;;;;;;10308073;28;20087;-69
2023/04/02 03:10:54;;;;;;;4.57;3.25;;;;;;;;;;10307886;28;20048;-69
2023/04/02 03:15:57;;;;;;;4.13;3.20;;;;;;;;;;10314123;28;20529;-68
2023/04/02 03:20:58;;;;;;;3.47;3.17;;;;;;;;;;10306151;28;20433;-69
2023/04/02 03:25:58;;;;;;;4.53;3.45;;;;;;;;;;10309699;28;20049;-69
2023/04/02 03:30:59;;;;;;;4.13;3.70;;;;;;;;;;10313787;28;20047;-68
2023/04/02 03:36:02;;;;;;;4.18;3.78;;;;;;;;;;10311757;28;20072;-68
2023/04/02 03:41:06;;;;;;;5.22;4.00;;;;;;;;;;10317499;28;20053;-68
2023/04/02 03:46:11;;;;;;;6.40;3.90;;;;;;;;;;10308106;28;20044;-69
2023/04/02 03:51:14;;;;;;;4.50;3.88;;;;;;;;;;10313868;28;20053;-68
2023/04/02 03:56:26;;;;;;;5.28;4.25;;;;;;;;;;10311935;28;20079;-68
2023/04/02 04:01:28;;;;;;;6.20;4.88;;;;;;;;;;10322202;28;20048;-69
2023/04/02 04:06:29;;;;;;;6.60;3.92;;;;;;;;;;10326468;28;20064;-68
2023/04/02 04:11:30;;;;;;;5.47;4.50;;;;;;;;;;10323178;28;20521;-68
2023/04/02 04:16:31;;;;;;;5.55;3.83;;;;;;;;;;10323475;28;20076;-69
2023/04/02 04:21:36;;;;;;;5.40;3.42;;;;;;;;;;10305656;28;20500;-69
2023/04/02 04:26:42;;;;;;;4.95;3.97;;;;;;;;;;10313967;28;20049;-69
2023/04/02 04:31:45;;;;;;;4.50;4.10;;;;;;;;;;10310581;28;20087;-69
2023/04/02 04:36:52;;;;;;;4.68;4.07;;;;;;;;;;10301875;28;20080;-68
2023/04/02 04:41:57;;;;;;;8.07;4.43;;;;;;;;;;10325928;28;20481;-69
2023/04/02 04:46:58;;;;;;;4.93;4.35;;;;;;;;;;10303951;28;20049;-69
2023/04/02 04:51:59;;;;;;;8.13;5.47;;;;;;;;;;10333985;28;20087;-69
2023/04/02 04:57:00;;;;;;;9.45;7.20;;;;;;;;;;10326904;28;20079;-68
2023/04/02 05:02:03;;;;;;;6.88;4.90;;;;;;;;;;10316702;28;20072;-69
2023/04/02 05:07:08;;;;;;;10.48;9.48;;;;;;;;;;10323105;28;20060;-70
2023/04/02 05:12:12;;;;;;;8.32;7.53;;;;;;;;;;10311129;28;20087;-70
2023/04/02 05:17:15;;;;;;;8.88;5.20;;;;;;;;;;10303535;28;20496;-70
2023/04/02 05:22:20;;;;;;;4.63;3.95;;;;;;;;;;10315297;28;20076;-70
2023/04/02 05:27:22;;;;;;;4.97;4.05;;;;;;;;;;10282491;28;20109;-70
2023/04/02 05:32:23;;;;;;;5.30;3.95;;;;;;;;;;10309291;28;20682;-70
2023/04/02 05:37:24;;;;;;;6.35;5.15;;;;;;;;;;10303689;28;20091;-70
2023/04/02 05:42:24;;;;;;;9.48;5.78;;;;;;;;;;10278423;28;20056;-69
2023/04/02 05:47:31;;;;;;;6.60;5.20;;;;;;;;;;10299492;28;20049;-69
2023/04/02 05:52:33;;;;;;;5.90;5.20;;;;;;;;;;10280965;28;20081;-69
2023/04/02 05:57:36;;;;;;;6.50;3.53;;;;;;;;;;10299555;28;20103;-69
2023/04/02 06:02:46;;;;;;;4.72;3.85;;;;;;;;;;10275809;28;20041;-69
2023/04/02 06:07:48;;;;;;;7.43;6.32;;;;;;;;;;10308623;28;20076;-69
2023/04/02 06:12:49;;;;;;;11.23;7.03;;;;;;;;;;10316587;28;20053;-69
2023/04/02 06:17:52;;;;;;;9.95;7.93;;;;;;;;;;10315877;28;20084;-69
2023/04/02 06:22:53;;;;;;;10.43;7.07;;;;;;;;;;10311959;28;20076;-69
2023/04/02 06:27:52;;;;;;;11.00;8.32;;;;;;;;;;10306017;28;20072;-69
2023/04/02 06:32:51;;;;;;;15.05;8.05;;;;;;;;;;10303698;28;20156;-69
2023/04/02 06:37:54;;;;;;;18.25;12.75;;;;;;;;;;10310170;28;20072;-69
2023/04/02 06:42:58;;;;;;;24.55;16.23;;;;;;;;;;10299055;28;20083;-69
2023/04/02 06:48:23;;;;;;;18.52;12.20;;;;;;;;;;10311421;28;20696;-69
2023/04/02 06:53:31;;;;;;;7.78;6.53;;;;;;;;;;10302750;28;20077;-68
2023/04/02 06:58:30;;;;;;;9.63;7.78;;;;;;;;;;10313138;28;20501;-69
2023/04/02 07:03:30;;;;;;;10.15;8.15;;;;;;;;;;10314926;28;20052;-69
2023/04/02 07:08:36;;;;;;;12.52;7.10;;;;;;;;;;10310842;28;20057;-69
2023/04/02 07:13:35;;;;;;;8.18;6.15;;;;;;;;;;10314303;28;20041;-69
2023/04/02 07:18:33;;;;;;;5.97;5.38;;;;;;;;;;10315099;28;20076;-69
2023/04/02 07:23:36;;;;;;;9.15;5.68;;;;;;;;;;10315566;28;20532;-69
2023/04/02 07:28:35;;;;;;;7.55;6.68;;;;;;;;;;10315078;28;20079;-69
2023/04/02 07:33:33;;;;;;;7.75;6.93;;;;;;;;;;10315270;28;20157;-68
2023/04/02 07:38:31;;;;;;;6.47;5.53;;;;;;;;;;10314056;28;20080;-70
2023/04/02 07:43:32;;;;;;;7.90;6.43;;;;;;;;;;10313793;28;20079;-70
2023/04/02 07:48:31;;;;;;;6.97;6.20;;;;;;;;;;10308127;28;20410;-69
2023/04/02 07:53:30;;;;;;;9.15;5.20;;;;;;;;;;10314106;28;20083;-69
2023/04/02 07:58:30;;;;;;;7.30;6.45;;;;;;;;;;10314478;28;20077;-70
2023/04/02 08:03:30;;;;;;;10.23;5.55;;;;;;;;;;10314471;28;20075;-69
2023/04/02 08:08:28;;;;;;;4.97;4.47;;;;;;;;;;10314275;28;20064;-67
2023/04/02 08:13:26;;;;;;;5.60;3.78;;;;;;;;;;10314402;28;20067;-70
2023/04/02 08:18:28;;;;;;;4.10;3.15;;;;;;;;;;10314777;28;20489;-69
2023/04/02 08:23:27;;;;;;;5.72;4.00;;;;;;;;;;10314453;28;20068;-70
2023/04/02 08:28:26;;;;;;;3.92;3.15;;;;;;;;;;10313746;28;20056;-69
2023/04/02 08:33:24;;;;;;;6.00;5.10;;;;;;;;;;10314438;28;20056;-69
2023/04/02 08:38:23;;;;;;;8.45;6.85;;;;;;;;;;10317948;28;20087;-70
2023/04/02 08:43:30;;;;;;;5.22;4.45;;;;;;;;;;10328935;28;20040;-70
2023/04/02 08:48:31;;;;;;;10.10;6.03;;;;;;;;;;10317955;28;20048;-70
2023/04/02 08:53:33;;;;;;;14.55;9.73;;;;;;;;;;10316381;28;20515;-69
2023/04/02 08:58:40;;;;;;;5.20;4.70;;;;;;;;;;10295327;28;20076;-69
2023/04/02 09:03:41;;;;;;;8.25;7.28;;;;;;;;;;10323776;28;20083;-70
2023/04/02 09:08:39;;;;;;;7.22;4.93;;;;;;;;;;10311890;28;20545;-70
2023/04/02 09:13:43;;;;;;;5.75;4.40;;;;;;;;;;10311773;28;20060;-70
2023/04/02 09:18:42;;;;;;;6.93;5.13;;;;;;;;;;10311227;28;20076;-70
2023/04/02 09:23:40;;;;;;;10.70;9.35;;;;;;;;;;10284308;28;20076;-71
2023/04/02 09:28:41;;;;;;;6.78;5.57;;;;;;;;;;10296703;28;20466;-70
2023/04/02 09:33:43;;;;;;;4.03;3.63;;;;;;;;;;10275288;28;20068;-71
2023/04/02 09:38:44;;;;;;;11.93;10.68;;;;;;;;;;10324662;28;20091;-71
2023/04/02 09:43:43;;;;;;;6.13;3.95;;;;;;;;;;10321732;28;20165;-69
2023/04/02 09:48:44;;;;;;;5.40;4.90;;;;;;;;;;10299009;28;20072;-70
2023/04/02 09:53:43;;;;;;;9.05;7.80;;;;;;;;;;10302103;28;20064;-70
2023/04/02 09:58:42;;;;;;;5.93;5.15;;;;;;;;;;10298185;28;20694;-70
2023/04/02 10:03:42;;;;;;;5.40;4.28;;;;;;;;;;10323073;28;20083;-70
2023/04/02 10:08:41;;;;;;;6.05;4.25;;;;;;;;;;10317896;28;20068;-70
2023/04/02 10:13:43;;;;;;;3.20;2.90;;;;;;;;;;10303658;28;20521;-70
2023/04/02 10:18:45;;;;;;;4.63;3.25;;;;;;;;;;10318051;28;20182;-70
2023/04/02 10:23:43;;;;;;;4.30;3.40;;;;;;;;;;10324489;28;20069;-70
2023/04/02 10:28:49;;;;;;;4.05;3.67;;;;;;;;;;10313816;28;20090;-71
2023/04/02 10:33:50;;;;;;;5.40;3.70;;;;;;;;;;10321941;28;20064;-70
2023/04/02 10:38:51;;;;;;;6.03;3.72;;;;;;;;;;10289457;28;20107;-70
2023/04/02 10:44:04;;;;;;;6.95;5.00;;;;;;;;;;10316137;28;20041;-70
2023/04/02 10:49:21;;;;;;;6.60;3.70;;;;;;;;;;10316853;28;20060;-71
2023/04/02 10:54:27;;;;;;;3.58;3.28;;;;;;;;;;10294743;28;20033;-71
2023/04/02 10:59:27;;;;;;;4.25;3.72;;;;;;;;;;10312324;28;20071;-71
2023/04/02 11:04:31;;;;;;;3.72;3.13;;;;;;;;;;10314429;28;20049;-70
2023/04/02 11:09:30;;;;;;;6.47;5.40;;;;;;;;;;10296644;28;20064;-70
2023/04/02 11:14:29;;;;;;;11.65;9.68;;;;;;;;;;10301919;28;20091;-70
2023/04/02 11:19:29;;;;;;;6.22;3.42;;;;;;;;;;10302820;28;20072;-71
2023/04/02 11:24:36;;;;;;;8.85;4.78;;;;;;;;;;10295531;28;20068;-70
2023/04/02 11:29:36;;;;;;;9.65;4.90;;;;;;;;;;10305555;28;20091;-71
2023/04/02 11:35:04;;;;;;;3.65;2.20;;;;;;;;;;10296601;28;20068;-70
2023/04/02 11:40:19;;;;;;;4.32;3.00;;;;;;;;;;10235525;28;20087;-70
2023/04/02 11:45:36;;;;;;;3.05;2.75;;;;;;;;;;10314611;28;20085;-70
2023/04/02 11:50:50;;;;;;;4.78;3.00;;;;;;;;;;10313159;28;20134;-71
2023/04/02 11:56:06;;;;;;;4.80;3.75;;;;;;;;;;10315343;28;20075;-69
2023/04/02 12:01:19;;;;;;;2.37;2.17;;;;;;;;;;10314970;28;20076;-70
2023/04/02 12:06:24;;;;;;;5.07;3.30;;;;;;;;;;10300991;28;20059;-70
2023/04/02 12:11:30;;;;;;;2.85;2.50;;;;;;;;;;10313680;28;20095;-70
2023/04/02 12:16:32;;;;;;;8.80;4.15;;;;;;;;;;10313820;28;20079;-70
2023/04/02 12:21:32;;;;;;;6.82;3.47;;;;;;;;;;10312125;28;20043;-70
2023/04/02 12:26:35;;;;;;;3.30;3.00;;;;;;;;;;10320891;28;20528;-68
2023/04/02 12:31:34;;;;;;;2.88;2.67;;;;;;;;;;10321397;28;20068;-70
2023/04/02 12:36:34;;;;;;;3.83;2.70;;;;;;;;;;10321346;28;20071;-69
2023/04/02 12:41:36;;;;;;;3.58;2.63;;;;;;;;;;10321594;28;20479;-69
2023/04/02 12:46:35;;;;;;;4.63;2.40;;;;;;;;;;10320901;28;20067;-69
2023/04/02 12:51:35;;;;;;;4.25;3.00;;;;;;;;;;10321352;28;20505;-69
2023/04/02 12:56:33;;;;;;;3.45;2.15;;;;;;;;;;10320476;28;20067;-70
2023/04/02 13:01:32;;;;;;;2.85;2.13;;;;;;;;;;10320410;28;20080;-70
2023/04/02 13:06:31;;;;;;;6.82;4.95;;;;;;;;;;10320282;28;20540;-69
2023/04/02 13:11:38;;;;;;;12.60;7.43;;;;;;;;;;10320715;28;20075;-69
2023/04/02 13:16:36;;;;;;;8.52;4.55;;;;;;;;;;10323882;28;20061;-69
2023/04/02 13:21:36;;;;;;;7.50;4.05;;;;;;;;;;10306717;28;20517;-69
2023/04/02 13:26:34;;;;;;;10.63;5.78;;;;;;;;;;10319743;28;20569;-69
2023/04/02 13:31:34;;;;;;;12.38;9.55;;;;;;;;;;10319363;28;20505;-70
2023/04/02 13:36:32;;;;;;;45.38;38.47;;;;;;;;;;10318139;28;20473;-69
2023/04/02 13:41:31;;;;;;;42.03;37.38;;;;;;;;;;10318661;28;20079;-69
2023/04/02 13:46:31;;;;;;;9.82;8.70;;;;;;;;;;10318860;28;20072;-70
2023/04/02 13:51:35;;;;;;;18.92;15.65;;;;;;;;;;10305606;28;20083;-70
2023/04/02 13:56:35;;;;;;;5.30;4.80;;;;;;;;;;10318462;28;20071;-71
2023/04/02 14:01:33;;;;;;;9.15;7.88;;;;;;;;;;10318345;28;20068;-70
2023/04/02 14:06:41;;;;;;;3.90;3.50;;;;;;;;;;10303636;28;20091;-69
2023/04/02 14:11:44;;;;;;;7.63;6.88;;;;;;;;;;10317991;28;20071;-69
2023/04/02 14:16:49;;;;;;;40.33;30.35;;;;;;;;;;10317426;28;20060;-69
2023/04/02 14:21:54;;;;;;;25.38;16.63;;;;;;;;;;10317302;28;20529;-69
2023/04/02 14:26:59;;;;;;;35.80;25.17;;;;;;;;;;10316944;28;20052;-69
2023/04/02 14:32:02;;;;;;;21.67;13.30;;;;;;;;;;10316725;28;20055;-70
2023/04/02 14:37:05;;;;;;;22.13;15.07;;;;;;;;;;10317024;28;20045;-70
2023/04/02 14:42:06;;;;;;;25.00;17.67;;;;;;;;;;10317058;28;20114;-70
2023/04/02 14:47:11;;;;;;;42.05;27.50;;;;;;;;;;10316251;28;20076;-69
2023/04/02 14:52:13;;;;;;;16.58;11.52;;;;;;;;;;10316102;28;20075;-70
2023/04/02 14:57:17;;;;;;;5.03;4.00;;;;;;;;;;10300681;28;20075;-68
2023/04/02 15:02:18;;;;;;;7.47;4.43;;;;;;;;;;10309921;28;20101;-68
2023/04/02 15:07:22;;;;;;;20.40;13.77;;;;;;;;;;10312611;28;20064;-68
2023/04/02 15:12:21;;;;;;;12.32;9.90;;;;;;;;;;10314261;28;20080;-69
2023/04/02 15:17:20;;;;;;;12.88;9.63;;;;;;;;;;10315435;28;20067;-69
2023/04/02 15:22:31;;;;;;;10.57;8.77;;;;;;;;;;10314886;28;20105;-68
2023/04/02 15:27:35;;;;;;;10.23;8.20;;;;;;;;;;10315379;28;20091;-69
2023/04/02 15:32:36;;;;;;;14.45;12.70;;;;;;;;;;10300848;28;20510;-69
2023/04/02 15:37:39;;;;;;;9.30;6.72;;;;;;;;;;10306644;28;20068;-69
2023/04/02 15:42:38;;;;;;;9.32;7.40;;;;;;;;;;10307813;28;20072;-70
2023/04/02 15:47:43;;;;;;;10.70;8.98;;;;;;;;;;10314493;28;20520;-69
2023/04/02 15:52:48;;;;;;;11.30;7.10;;;;;;;;;;10278468;28;20068;-69
2023/04/02 15:58:01;;;;;;;7.43;6.47;;;;;;;;;;10312630;28;20083;-69
2023/04/02 16:03:17;;;;;;;11.85;9.10;;;;;;;;;;10301050;28;20078;-70
2023/04/02 16:08:40;;;;;;;10.02;8.90;;;;;;;;;;10276752;28;20076;-70
2023/04/02 16:13:39;;;;;;;8.25;6.90;;;;;;;;;;10298252;28;20075;-69
2023/04/02 16:18:41;;;;;;;11.95;10.10;;;;;;;;;;10302165;28;20085;-69
2023/04/02 16:23:41;;;;;;;21.95;17.90;;;;;;;;;;10305087;28;20489;-69
2023/04/02 16:28:44;;;;;;;27.30;21.13;;;;;;;;;;10299783;28;20726;-70
2023/04/02 16:33:48;;;;;;;21.65;19.35;;;;;;;;;;10308034;28;20075;-70
2023/04/02 16:38:53;;;;;;;32.57;25.53;;;;;;;;;;10313265;28;20494;-70
2023/04/02 16:43:56;;;;;;;20.13;15.82;;;;;;;;;;10295659;28;20330;-69
2023/04/02 16:48:57;;;;;;;29.95;22.08;;;;;;;;;;10295763;28;20087;-70
2023/04/02 16:54:00;;;;;;;33.22;24.08;;;;;;;;;;10312754;28;20063;-70
2023/04/02 16:59:03;;;;;;;28.42;21.60;;;;;;;;;;10312912;28;20076;-71
2023/04/02 17:04:16;;;;;;;31.50;23.55;;;;;;;;;;10313008;28;20886;-70
2023/04/02 17:09:17;;;;;;;15.63;12.15;;;;;;;;;;10314351;28;20512;-72
2023/04/02 17:14:21;;;;;;;50.03;39.63;;;;;;;;;;10320310;28;20083;-72
2023/04/02 17:19:20;;;;;;;22.73;20.35;;;;;;;;;;10307162;28;20083;-71
2023/04/02 17:24:26;;;;;;;30.67;27.23;;;;;;;;;;10316169;28;20518;-69
2023/04/02 17:29:27;;;;;;;63.10;44.60;;;;;;;;;;10279304;28;20052;-69
2023/04/02 17:34:28;;;;;;;38.05;27.88;;;;;;;;;;10304902;28;20067;-69
2023/04/02 17:39:34;;;;;;;22.63;17.77;;;;;;;;;;10303369;28;20088;-69
2023/04/02 17:44:44;;;;;;;14.95;11.38;;;;;;;;;;10292068;28;20079;-69
2023/04/02 17:49:46;;;;;;;7.80;5.72;;;;;;;;;;10278743;28;20116;-70
2023/04/02 17:54:51;;;;;;;9.07;6.55;;;;;;;;;;10280663;28;20072;-70
2023/04/02 18:00:00;;;;;;;9.23;6.65;;;;;;;;;;10278094;28;20077;-67
2023/04/02 18:05:14;;;;;;;10.13;9.13;;;;;;;;;;10290886;28;20218;-67
2023/04/02 18:10:19;;;;;;;9.63;7.82;;;;;;;;;;10289260;28;20510;-67
2023/04/02 18:15:37;;;;;;;18.08;12.82;;;;;;;;;;10308376;28;20067;-67
2023/04/02 18:20:39;;;;;;;21.48;17.02;;;;;;;;;;10301826;28;20073;-67
2023/04/02 18:25:46;;;;;;;24.40;15.25;;;;;;;;;;10288231;28;20104;-68
2023/04/02 18:30:47;;;;;;;18.13;12.80;;;;;;;;;;10313376;28;20071;-67
2023/04/02 18:35:52;;;;;;;15.70;12.55;;;;;;;;;;10282373;28;20080;-68
2023/04/02 18:41:03;;;;;;;21.58;17.55;;;;;;;;;;10307480;28;20079;-69
2023/04/02 18:46:07;;;;;;;14.60;12.23;;;;;;;;;;10292612;28;20075;-68
2023/04/02 18:51:13;;;;;;;9.13;6.50;;;;;;;;;;10295642;28;20091;-67
2023/04/02 18:56:14;;;;;;;9.48;5.68;;;;;;;;;;10290047;28;20069;-68
2023/04/02 19:01:14;;;;;;;7.93;6.22;;;;;;;;;;10294684;28;20077;-68
2023/04/02 19:06:15;;;;;;;15.55;13.02;;;;;;;;;;10302563;28;20526;-67
2023/04/02 19:11:16;;;;;;;35.30;25.92;;;;;;;;;;10303459;28;20068;-68
2023/04/02 19:16:33;;;;;;;21.50;19.23;;;;;;;;;;10298359;28;20083;-69
2023/04/02 19:21:35;;;;;;;16.08;13.20;;;;;;;;;;10295709;28;20088;-68
2023/04/02 19:26:40;;;;;;;18.35;13.60;;;;;;;;;;10296998;28;20076;-69
2023/04/02 19:31:46;;;;;;;11.77;8.27;;;;;;;;;;10310702;28;20077;-68
2023/04/02 19:36:46;;;;;;;7.13;4.90;;;;;;;;;;10276632;28;20500;-69
2023/04/02 19:41:47;;;;;;;57.15;43.65;;;;;;;;;;10281493;28;20095;-68
2023/04/02 19:46:46;;;;;;;15.13;10.02;;;;;;;;;;10285819;28;20072;-66
2023/04/02 19:51:44;;;;;;;37.88;23.13;;;;;;;;;;10286970;28;20072;-66
2023/04/02 19:56:42;;;;;;;14.43;9.05;;;;;;;;;;10286277;28;20496;-67
2023/04/02 20:01:42;;;;;;;9.05;7.20;;;;;;;;;;10284328;28;20064;-67
2023/04/02 20:06:40;;;;;;;12.38;6.93;;;;;;;;;;10288621;28;20080;-67
2023/04/02 20:11:38;;;;;;;14.57;9.18;;;;;;;;;;10288709;28;20103;-68
2023/04/02 20:16:37;;;;;;;8.68;7.57;;;;;;;;;;10285381;28;20522;-68
2023/04/02 20:21:37;;;;;;;6.55;5.78;;;;;;;;;;10284939;28;20504;-68
2023/04/02 20:26:36;;;;;;;8.02;6.43;;;;;;;;;;10282702;28;20087;-68
2023/04/02 20:31:36;;;;;;;5.47;4.97;;;;;;;;;;10290845;28;20529;-68
2023/04/02 20:36:34;;;;;;;6.78;5.90;;;;;;;;;;10291491;28;20079;-68
2023/04/02 20:41:34;;;;;;;6.68;6.00;;;;;;;;;;10285158;28;20874;-68
2023/04/02 20:46:32;;;;;;;7.82;4.60;;;;;;;;;;10284855;28;20457;-68
2023/04/02 20:51:31;;;;;;;4.70;3.45;;;;;;;;;;10281124;28;20073;-67
2023/04/02 20:56:29;;;;;;;6.60;4.03;;;;;;;;;;10284671;28;20076;-68
2023/04/02 21:01:30;;;;;;;3.65;3.25;;;;;;;;;;10294730;28;20087;-68
2023/04/02 21:06:30;;;;;;;2.92;2.70;;;;;;;;;;10290743;28;20072;-68
2023/04/02 21:11:29;;;;;;;4.10;3.10;;;;;;;;;;10297511;28;20064;-67
2023/04/02 21:16:30;;;;;;;21.50;18.20;;;;;;;;;;10291445;28;20198;-68
2023/04/02 21:21:29;;;;;;;12.82;11.43;;;;;;;;;;10288028;28;20079;-68
2023/04/02 21:26:28;;;;;;;3.05;2.75;;;;;;;;;;10291849;28;20466;-67
2023/04/02 21:31:33;;;;;;;2.60;2.40;;;;;;;;;;10287143;28;20056;-68
2023/04/02 21:36:32;;;;;;;4.28;3.47;;;;;;;;;;10290855;28;20072;-68
2023/04/02 21:41:31;;;;;;;3.10;2.80;;;;;;;;;;10292122;28;20072;-67
2023/04/02 21:46:33;;;;;;;3.65;3.30;;;;;;;;;;10295641;28;20353;-67
2023/04/02 21:51:32;;;;;;;3.67;3.25;;;;;;;;;;10291168;28;20079;-67
2023/04/02 21:56:34;;;;;;;3.20;2.90;;;;;;;;;;10281978;28;20064;-67
2023/04/02 22:01:35;;;;;;;3.47;2.50;;;;;;;;;;10287127;28;20084;-68
2023/04/02 22:06:36;;;;;;;4.43;2.50;;;;;;;;;;10292016;28;20076;-68
2023/04/02 22:11:35;;;;;;;2.33;2.13;;;;;;;;;;10291011;28;20100;-67
2023/04/02 22:16:35;;;;;;;3.38;2.53;;;;;;;;;;10290999;28;20445;-67
2023/04/02 22:21:34;;;;;;;2.60;2.40;;;;;;;;;;10286071;28;20085;-68
2023/04/02 22:26:32;;;;;;;2.65;2.20;;;;;;;;;;10288824;28;20092;-68
2023/04/02 22:31:32;;;;;;;3.35;2.50;;;;;;;;;;10289240;28;20041;-67
2023/04/02 22:36:32;;;;;;;3.15;2.70;;;;;;;;;;10292271;28;20075;-66
2023/04/02 22:41:30;;;;;;;3.90;2.60;;;;;;;;;;10292184;28;20076;-66
2023/04/02 22:46:29;;;;;;;6.20;2.50;;;;;;;;;;10288042;28;20124;-66
2023/04/02 22:51:30;;;;;;;4.60;2.78;;;;;;;;;;10289084;28;20517;-66
2023/04/02 22:56:31;;;;;;;2.67;2.42;;;;;;;;;;10291493;28;20467;-66
2023/04/02 23:01:31;;;;;;;2.83;2.40;;;;;;;;;;10286538;28;20076;-65
2023/04/02 23:06:29;;;;;;;4.45;2.53;;;;;;;;;;10292029;28;20308;-67
2023/04/02 23:11:29;;;;;;;2.55;2.35;;;;;;;;;;10291098;28;20063;-66
2023/04/02 23:16:28;;;;;;;2.70;2.30;;;;;;;;;;10285847;28;20064;-67
2023/04/02 23:21:27;;;;;;;2.75;2.50;;;;;;;;;;10290065;28;20079;-67
2023/04/02 23:26:27;;;;;;;3.22;2.60;;;;;;;;;;10288545;28;20075;-67
2023/04/02 23:31:28;;;;;;;3.40;2.60;;;;;;;;;;10288306;28;20510;-66
2023/04/02 23:36:27;;;;;;;3.00;2.72;;;;;;;;;;10288002;28;20068;-67
2023/04/02 23:41:25;;;;;;;3.25;2.78;;;;;;;;;;10288938;28;20088;-68
2023/04/02 23:46:24;;;;;;;3.63;3.08;;;;;;;;;;10287151;28;20068;-66
2023/04/02 23:51:24;;;;;;;2.45;2.20;;;;;;;;;;10286212;28;20085;-66
2023/04/02 23:56:23;;;;;;;2.50;2.30;;;;;;;;;;10287202;28;20075;-67
